Time,TemperatureF,DewpointF,PressureIn,WindDirection,WindDirectionDegrees,WindSpeedMPH,WindSpeedGustMPH,Humidity,HourlyPrecipIn,Conditions,Clouds,dailyrainin,SoftwareType,DateUTC
2013-11-05 00:01:00,47.8,44.5,29.21,South,180,3.5,3.5,88,0.00,RA,,0.00,WeatherDisplay:10.37,2013-11-05 06:01:00,
2013-11-05 00:06:00,47.8,44.5,29.22,South,180,2.3,2.3,88,0.00,RA,,0.00,WeatherDisplay:10.37,2013-11-05 06:06:00,
2013-11-05 00:11:00,47.5,44.7,29.22,SW,225,4.6,4.6,90,0.00,CLR,,0.00,WeatherDisplay:10.37,2013-11-05 06:11:00,
2013-11-05 00:16:00,47.5,45.0,29.22,SW,225,3.5,3.5,91,0.00,CLR,,0.00,WeatherDisplay:10.37,2013-11-05 06:16:00,
2013-11-05 00:21:00,47.3,44.8,29.22,SW,225,3.5,3.5,91,0.00,CLR,,0.00,WeatherDisplay:10.37,2013-11-05 06:21:00,
2013-11-05 00:26:00,47.1,44.9,29.23,South,180,2.3,2.3,92,0.00,CLR,,0.00,WeatherDisplay:10.37,2013-11-05 06:26:00,
2013-11-05 00:31:00,46.9,44.7,29.23,NW,315,3.5,3.5,92,0.00,CLR,,0.00,WeatherDisplay:10.37,2013-11-05 06:31:00,
2013-11-05 00:36:00,46.9,44.7,29.23,North,0,3.5,3.5,92,0.00,CLR,,0.00,WeatherDisplay:10.37,2013-11-05 06:36:00,
2013-11-05 00:41:00,46.8,44.6,29.23,NW,315,3.5,3.5,92,0.00,CLR,,0.00,WeatherDisplay:10.37,2013-11-05 06:41:00,
2013-11-05 00:46:00,46.8,44.6,29.23,SW,225,1.2,1.6,92,0.00,CLR,,0.00,WeatherDisplay:10.37,2013-11-05 06:46:00,
2013-11-05 00:51:00,46.6,44.4,29.24,SW,225,3.5,3.5,92,0.00,CLR,,0.00,WeatherDisplay:10.37,2013-11-05 06:51:00,
2013-11-05 00:56:00,46.6,44.4,29.24,West,270,5.8,5.8,92,0.00,CLR,,0.00,WeatherDisplay:10.37,2013-11-05 06:56:00,
2013-11-05 01:01:00,46.4,44.5,29.24,NW,315,4.6,4.6,93,0.00,CLR,,0.00,WeatherDisplay:10.37,2013-11-05 07:01:00,
2013-11-05 01:06:00,46.4,44.5,29.24,NW,315,4.6,4.6,93,0.00,CLR,,0.00,WeatherDisplay:10.37,2013-11-05 07:06:00,
2013-11-05 01:11:00,46.2,44.3,29.24,NW,315,4.6,4.6,93,0.00,CLR,,0.00,WeatherDisplay:10.37,2013-11-05 07:11:00,
2013-11-05 01:16:00,46.2,44.0,29.24,NW,315,1.2,1.2,92,0.00,CLR,,0.00,WeatherDisplay:10.37,2013-11-05 07:16:00,
2013-11-05 01:21:00,46.0,43.8,29.24,West,270,2.3,0.0,92,0.00,CLR,,0.00,WeatherDisplay:10.37,2013-11-05 07:21:00,
2013-11-05 01:26:00,46.0,43.6,29.25,NW,315,3.5,3.5,91,0.00,CLR,,0.00,WeatherDisplay:10.37,2013-11-05 07:26:00,
2013-11-05 01:31:00,46.0,43.3,29.24,NW,315,3.5,3.5,90,0.00,CLR,,0.00,WeatherDisplay:10.37,2013-11-05 07:31:00,
2013-11-05 01:36:00,46.0,42.7,29.25,North,0,3.5,3.5,88,0.00,CLR,,0.00,WeatherDisplay:10.37,2013-11-05 07:36:00,
2013-11-05 01:41:00,45.9,42.2,29.25,NW,315,3.5,3.5,87,0.00,CLR,,0.00,WeatherDisplay:10.37,2013-11-05 07:41:00,
2013-11-05 01:46:00,45.9,42.2,29.25,NW,315,3.5,3.5,87,0.00,CLR,,0.00,WeatherDisplay:10.37,2013-11-05 07:46:00,
2013-11-05 01:51:00,45.9,41.9,29.25,North,0,5.8,5.8,86,0.00,CLR,,0.00,WeatherDisplay:10.37,2013-11-05 07:51:00,
2013-11-05 01:56:00,45.9,41.9,29.25,SW,225,2.3,0.0,86,0.00,CLR,,0.00,WeatherDisplay:10.37,2013-11-05 07:56:00,
2013-11-05 02:01:00,45.9,41.9,29.25,West,270,3.5,3.5,86,0.00,CLR,,0.00,WeatherDisplay:10.37,2013-11-05 08:01:00,
2013-11-05 02:06:00,45.9,41.9,29.25,West,270,3.5,3.5,86,0.00,CLR,,0.00,WeatherDisplay:10.37,2013-11-05 08:06:00,
2013-11-05 02:12:00,45.5,41.3,29.25,NW,315,2.3,0.0,85,0.00,CLR,,0.00,WeatherDisplay:10.37,2013-11-05 08:12:00,
2013-11-05 02:17:00,45.5,41.3,29.26,SW,225,1.2,0.0,85,0.00,CLR,,0.00,WeatherDisplay:10.37,2013-11-05 08:17:00,
2013-11-05 02:22:00,45.5,41.3,29.25,NW,315,3.5,3.5,85,0.00,CLR,,0.00,WeatherDisplay:10.37,2013-11-05 08:22:00,
2013-11-05 02:27:00,45.3,41.1,29.25,NE,45,0.0,0.0,85,0.00,CLR,,0.00,WeatherDisplay:10.37,2013-11-05 08:27:00,
2013-11-05 02:32:00,45.1,40.9,29.25,West,270,3.5,0.0,85,0.00,CLR,,0.00,WeatherDisplay:10.37,2013-11-05 08:32:00,
2013-11-05 02:37:00,45.3,41.1,29.26,SW,225,2.3,0.0,85,0.00,CLR,,0.00,WeatherDisplay:10.37,2013-11-05 08:37:00,
2013-11-05 02:42:00,45.3,41.1,29.26,NW,315,2.3,0.0,85,0.00,CLR,,0.00,WeatherDisplay:10.37,2013-11-05 08:42:00,
2013-11-05 02:47:00,45.1,40.9,29.26,West,270,2.3,2.3,85,0.00,CLR,,0.00,WeatherDisplay:10.37,2013-11-05 08:47:00,
2013-11-05 02:52:00,45.1,40.9,29.27,SW,225,1.2,0.0,85,0.00,CLR,,0.00,WeatherDisplay:10.37,2013-11-05 08:52:00,
2013-11-05 02:57:00,45.0,40.7,29.27,SW,225,4.6,4.6,85,0.00,CLR,,0.00,WeatherDisplay:10.37,2013-11-05 08:57:00,
2013-11-05 03:02:00,45.0,40.4,29.27,NW,315,0.0,0.0,84,0.00,CLR,,0.00,WeatherDisplay:10.37,2013-11-05 09:02:00,
2013-11-05 03:07:00,45.0,40.4,29.26,NW,315,0.0,0.0,84,0.00,CLR,,0.00,WeatherDisplay:10.37,2013-11-05 09:07:00,
2013-11-05 03:12:00,45.0,40.7,29.26,West,270,3.5,3.5,85,0.00,CLR,,0.00,WeatherDisplay:10.37,2013-11-05 09:12:00,
2013-11-05 03:17:00,44.8,40.2,29.26,NW,315,1.2,0.0,84,0.00,CLR,,0.00,WeatherDisplay:10.37,2013-11-05 09:17:00,
2013-11-05 03:22:00,44.6,40.4,29.26,South,180,0.0,0.0,85,0.00,CLR,,0.00,WeatherDisplay:10.37,2013-11-05 09:22:00,
2013-11-05 03:27:00,44.8,40.5,29.26,South,180,0.0,0.0,85,0.00,CLR,,0.00,WeatherDisplay:10.37,2013-11-05 09:27:00,
2013-11-05 03:32:00,44.6,40.4,29.27,SW,225,2.3,0.0,85,0.00,CLR,,0.00,WeatherDisplay:10.37,2013-11-05 09:32:00,
2013-11-05 03:37:00,44.6,40.1,29.27,NW,315,2.3,2.3,84,0.00,CLR,,0.00,WeatherDisplay:10.37,2013-11-05 09:37:00,
2013-11-05 03:42:00,44.4,39.9,29.27,North,0,4.6,4.6,84,0.00,CLR,,0.00,WeatherDisplay:10.37,2013-11-05 09:42:00,
2013-11-05 03:47:00,44.4,39.9,29.27,North,0,3.5,0.0,84,0.00,CLR,,0.00,WeatherDisplay:10.37,2013-11-05 09:47:00,
2013-11-05 03:52:00,44.2,39.7,29.27,NW,315,1.2,0.0,84,0.00,CLR,,0.00,WeatherDisplay:10.37,2013-11-05 09:52:00,
2013-11-05 03:57:00,44.2,39.7,29.26,NW,315,3.5,3.5,84,0.00,CLR,,0.00,WeatherDisplay:10.37,2013-11-05 09:57:00,
2013-11-05 04:02:00,44.1,39.5,29.27,NW,315,2.3,2.3,84,0.00,CLR,,0.00,WeatherDisplay:10.37,2013-11-05 10:02:00,
2013-11-05 04:07:00,43.9,39.4,29.27,NW,315,2.3,2.3,84,0.00,CLR,,0.00,WeatherDisplay:10.37,2013-11-05 10:07:00,
2013-11-05 04:12:00,43.5,39.3,29.27,NW,315,1.2,0.0,85,0.00,CLR,,0.00,WeatherDisplay:10.37,2013-11-05 10:12:00,
2013-11-05 04:17:00,43.3,38.8,29.27,North,0,3.5,3.5,84,0.00,CLR,,0.00,WeatherDisplay:10.37,2013-11-05 10:17:00,
2013-11-05 04:22:00,43.2,38.7,29.28,North,0,1.2,1.6,84,0.00,CLR,,0.00,WeatherDisplay:10.37,2013-11-05 10:22:00,
2013-11-05 04:27:00,43.0,38.8,29.28,North,0,0.0,0.0,85,0.00,CLR,,0.00,WeatherDisplay:10.37,2013-11-05 10:27:00,
2013-11-05 04:32:00,42.4,38.8,29.28,North,0,0.0,0.0,87,0.00,CLR,,0.00,WeatherDisplay:10.37,2013-11-05 10:32:00,
2013-11-05 04:37:00,42.1,38.8,29.28,North,0,0.0,0.0,88,0.00,CLR,,0.00,WeatherDisplay:10.37,2013-11-05 10:37:00,
2013-11-05 04:42:00,41.9,38.6,29.29,North,0,1.2,0.0,88,0.00,CLR,,0.00,WeatherDisplay:10.37,2013-11-05 10:42:00,
2013-11-05 04:47:00,42.1,39.1,29.29,West,270,2.3,2.3,89,0.00,CLR,,0.00,WeatherDisplay:10.37,2013-11-05 10:47:00,
2013-11-05 04:52:00,41.9,38.6,29.29,West,270,0.0,0.0,88,0.00,CLR,,0.00,WeatherDisplay:10.37,2013-11-05 10:52:00,
2013-11-05 04:57:00,41.7,38.4,29.29,SW,225,2.3,0.0,88,0.00,CLR,,0.00,WeatherDisplay:10.37,2013-11-05 10:57:00,
2013-11-05 05:02:00,41.5,38.3,29.29,West,270,0.0,0.0,88,0.00,CLR,,0.00,WeatherDisplay:10.37,2013-11-05 11:02:00,
2013-11-05 05:07:00,41.2,38.2,29.29,South,180,0.0,0.0,89,0.00,CLR,,0.00,WeatherDisplay:10.37,2013-11-05 11:07:00,
2013-11-05 05:12:00,40.6,37.7,29.29,South,180,0.0,0.0,89,0.00,CLR,,0.00,WeatherDisplay:10.37,2013-11-05 11:12:00,
2013-11-05 05:17:00,39.9,36.9,29.29,NW,315,0.0,0.0,89,0.00,CLR,,0.00,WeatherDisplay:10.37,2013-11-05 11:17:00,
2013-11-05 05:22:00,39.4,36.4,29.30,NW,315,0.0,0.0,89,0.00,CLR,,0.00,WeatherDisplay:10.37,2013-11-05 11:22:00,
2013-11-05 05:27:00,38.8,35.9,29.30,NW,315,0.0,0.0,89,0.00,CLR,,0.00,WeatherDisplay:10.37,2013-11-05 11:27:00,
2013-11-05 05:32:00,38.3,35.6,29.30,NW,315,0.0,0.0,90,0.00,CLR,,0.00,WeatherDisplay:10.37,2013-11-05 11:32:00,
2013-11-05 05:37:00,38.1,35.4,29.30,NW,315,0.0,0.0,90,0.00,CLR,,0.00,WeatherDisplay:10.37,2013-11-05 11:37:00,
2013-11-05 05:42:00,38.1,35.4,29.30,NW,315,0.0,0.0,90,0.00,CLR,,0.00,WeatherDisplay:10.37,2013-11-05 11:42:00,
2013-11-05 05:47:00,37.9,35.5,29.30,SW,225,0.0,0.0,91,0.00,CLR,,0.00,WeatherDisplay:10.37,2013-11-05 11:47:00,
2013-11-05 05:52:00,37.9,35.8,29.30,SW,225,0.0,0.0,92,0.00,CLR,,0.00,WeatherDisplay:10.37,2013-11-05 11:52:00,
2013-11-05 05:58:00,37.8,35.6,29.30,SW,225,0.0,0.0,92,0.00,CLR,,0.00,WeatherDisplay:10.37,2013-11-05 11:58:00,
2013-11-05 06:03:00,37.6,35.5,29.30,NW,315,0.0,0.0,92,0.00,CLR,,0.00,WeatherDisplay:10.37,2013-11-05 12:03:00,
2013-11-05 06:08:00,37.4,35.3,29.31,NW,315,0.0,0.0,92,0.00,CLR,,0.00,WeatherDisplay:10.37,2013-11-05 12:08:00,
2013-11-05 06:13:00,36.9,34.8,29.31,NW,315,0.0,0.0,92,0.00,CLR,,0.00,WeatherDisplay:10.37,2013-11-05 12:13:00,
2013-11-05 06:18:00,36.5,34.4,29.30,NW,315,0.0,0.0,92,0.00,CLR,,0.00,WeatherDisplay:10.37,2013-11-05 12:18:00,
2013-11-05 06:23:00,36.1,34.0,29.30,NW,315,0.0,0.0,92,0.00,CLR,,0.00,WeatherDisplay:10.37,2013-11-05 12:23:00,
2013-11-05 06:28:00,36.1,34.3,29.31,NW,315,0.0,0.0,93,0.00,CLR,,0.00,WeatherDisplay:10.37,2013-11-05 12:28:00,
2013-11-05 06:33:00,36.3,34.5,29.31,NW,315,0.0,0.0,93,0.00,CLR,,0.00,WeatherDisplay:10.37,2013-11-05 12:33:00,
2013-11-05 06:38:00,36.3,34.5,29.31,NW,315,0.0,0.0,93,0.00,CLR,,0.00,WeatherDisplay:10.37,2013-11-05 12:38:00,
2013-11-05 06:43:00,36.1,34.3,29.31,NW,315,0.0,0.0,93,0.00,CLR,,0.00,WeatherDisplay:10.37,2013-11-05 12:43:00,
2013-11-05 06:48:00,36.0,34.4,29.31,NW,315,0.0,0.0,94,0.00,CLR,,0.00,WeatherDisplay:10.37,2013-11-05 12:48:00,
2013-11-05 06:53:00,36.0,34.4,29.31,NW,315,0.0,0.0,94,0.00,CLR,,0.00,WeatherDisplay:10.37,2013-11-05 12:53:00,
2013-11-05 06:58:00,36.0,34.4,29.31,SW,225,0.0,0.0,94,0.00,CLR,,0.00,WeatherDisplay:10.37,2013-11-05 12:58:00,
2013-11-05 07:03:00,36.0,34.4,29.31,SW,225,0.0,0.0,94,0.00,CLR,,0.00,WeatherDisplay:10.37,2013-11-05 13:03:00,
2013-11-05 07:08:00,36.0,34.4,29.31,SW,225,0.0,0.0,94,0.00,CLR,,0.00,WeatherDisplay:10.37,2013-11-05 13:08:00,
2013-11-05 07:13:00,36.0,34.4,29.32,SW,225,0.0,0.0,94,0.00,CLR,,0.00,WeatherDisplay:10.37,2013-11-05 13:13:00,
2013-11-05 07:18:00,36.1,34.6,29.32,SW,225,0.0,0.0,94,0.00,CLR,,0.00,WeatherDisplay:10.37,2013-11-05 13:18:00,
2013-11-05 07:23:00,36.3,35.0,29.32,SW,225,0.0,0.0,95,0.00,CLR,,0.00,WeatherDisplay:10.37,2013-11-05 13:23:00,
2013-11-05 07:28:00,36.5,35.2,29.32,NW,315,0.0,0.0,95,0.00,CLR,,0.00,WeatherDisplay:10.37,2013-11-05 13:28:00,
2013-11-05 07:33:00,37.2,35.9,29.32,NW,315,0.0,0.0,95,0.00,CLR,,0.00,WeatherDisplay:10.37,2013-11-05 13:33:00,
2013-11-05 07:38:00,38.1,36.8,29.32,NW,315,0.0,0.0,95,0.00,CLR,,0.00,WeatherDisplay:10.37,2013-11-05 13:38:00,
2013-11-05 07:43:00,38.5,37.2,29.32,NW,315,0.0,0.0,95,0.00,CLR,,0.00,WeatherDisplay:10.37,2013-11-05 13:43:00,
2013-11-05 07:48:00,38.7,37.4,29.32,NW,315,0.0,0.0,95,0.00,CLR,,0.00,WeatherDisplay:10.37,2013-11-05 13:48:00,
2013-11-05 07:53:00,39.6,38.2,29.33,NW,315,0.0,0.0,95,0.00,CLR,,0.00,WeatherDisplay:10.37,2013-11-05 13:53:00,
2013-11-05 07:58:00,39.9,38.6,29.33,East,90,0.0,0.0,95,0.00,CLR,,0.00,WeatherDisplay:10.37,2013-11-05 13:58:00,
2013-11-05 08:03:00,40.3,38.7,29.33,East,90,0.0,0.0,94,0.00,CLR,,0.00,WeatherDisplay:10.37,2013-11-05 14:03:00,
2013-11-05 08:08:00,41.2,39.6,29.33,East,90,0.0,0.0,94,0.00,CLR,,0.00,WeatherDisplay:10.37,2013-11-05 14:08:00,
2013-11-05 08:13:00,41.4,39.5,29.33,South,180,0.0,0.0,93,0.00,CLR,,0.00,WeatherDisplay:10.37,2013-11-05 14:13:00,
2013-11-05 08:18:00,41.7,39.6,29.33,South,180,0.0,0.0,92,0.00,CLR,,0.00,WeatherDisplay:10.37,2013-11-05 14:18:00,
2013-11-05 08:23:00,41.9,39.5,29.33,South,180,2.3,2.3,91,0.00,CLR,,0.00,WeatherDisplay:10.37,2013-11-05 14:23:00,
2013-11-05 08:28:00,42.1,39.4,29.33,South,180,2.3,2.3,90,0.00,CLR,,0.00,WeatherDisplay:10.37,2013-11-05 14:28:00,
2013-11-05 08:33:00,42.6,39.6,29.33,East,90,1.2,0.0,89,0.00,CLR,,0.00,WeatherDisplay:10.37,2013-11-05 14:33:00,
2013-11-05 08:38:00,43.3,40.3,29.33,East,90,0.0,0.0,89,0.00,CLR,,0.00,WeatherDisplay:10.37,2013-11-05 14:38:00,
2013-11-05 08:43:00,43.9,39.7,29.34,South,180,0.0,0.0,85,0.00,CLR,,0.00,WeatherDisplay:10.37,2013-11-05 14:43:00,
2013-11-05 08:48:00,44.2,39.4,29.33,SE,135,3.5,3.5,83,0.00,CLR,,0.00,WeatherDisplay:10.37,2013-11-05 14:48:00,
2013-11-05 08:53:00,44.8,38.3,29.33,South,180,2.3,2.3,78,0.00,CLR,,0.00,WeatherDisplay:10.37,2013-11-05 14:53:00,
2013-11-05 08:58:00,45.1,38.0,29.33,SSE,158,3.5,3.5,76,0.00,CLR,,0.00,WeatherDisplay:10.37,2013-11-05 14:58:00,
2013-11-05 09:03:00,45.3,37.9,29.33,SE,135,3.5,3.5,75,0.00,CLR,,0.00,WeatherDisplay:10.37,2013-11-05 15:03:00,
2013-11-05 09:08:00,45.9,37.0,29.33,East,90,5.8,5.8,71,0.00,CLR,,0.00,WeatherDisplay:10.37,2013-11-05 15:08:00,
2013-11-05 09:13:00,46.0,36.8,29.33,East,90,3.5,3.5,70,0.00,CLR,,0.00,WeatherDisplay:10.37,2013-11-05 15:13:00,
2013-11-05 09:18:00,46.2,35.9,29.33,East,90,3.5,3.5,67,0.00,CLR,,0.00,WeatherDisplay:10.37,2013-11-05 15:18:00,
2013-11-05 09:23:00,46.4,35.7,29.33,East,90,3.5,3.5,66,0.00,CLR,,0.00,WeatherDisplay:10.37,2013-11-05 15:23:00,
2013-11-05 09:28:00,46.6,35.4,29.33,SSW,202,4.6,4.6,65,0.00,CLR,,0.00,WeatherDisplay:10.37,2013-11-05 15:28:00,
2013-11-05 09:33:00,47.1,36.0,29.33,SE,135,4.6,4.6,65,0.00,CLR,,0.00,WeatherDisplay:10.37,2013-11-05 15:33:00,
2013-11-05 09:38:00,47.5,35.5,29.33,South,180,3.5,3.5,63,0.00,CLR,,0.00,WeatherDisplay:10.37,2013-11-05 15:38:00,
2013-11-05 09:43:00,47.7,34.9,29.32,South,180,4.6,4.6,61,0.00,CLR,,0.00,WeatherDisplay:10.37,2013-11-05 15:43:00,
2013-11-05 09:48:00,47.7,34.9,29.31,East,90,5.8,5.8,61,0.00,CLR,,0.00,WeatherDisplay:10.37,2013-11-05 15:48:00,
2013-11-05 09:53:00,48.4,34.7,29.32,East,90,4.6,4.6,59,0.00,CLR,,0.00,WeatherDisplay:10.37,2013-11-05 15:53:00,
2013-11-05 09:58:00,50.0,35.4,29.31,South,180,4.6,4.6,57,0.00,CLR,,0.00,WeatherDisplay:10.37,2013-11-05 15:58:00,
2013-11-05 10:03:00,50.5,35.4,29.32,South,180,3.5,3.5,56,0.00,CLR,,0.00,WeatherDisplay:10.37,2013-11-05 16:03:00,
2013-11-05 10:08:00,51.8,35.2,29.32,South,180,4.6,4.6,53,0.00,CLR,,0.00,WeatherDisplay:10.37,2013-11-05 16:08:00,
2013-11-05 10:13:00,52.3,35.2,29.33,East,90,3.5,3.5,52,0.00,CLR,,0.00,WeatherDisplay:10.37,2013-11-05 16:13:00,
2013-11-05 10:18:00,53.2,36.1,29.33,South,180,3.5,3.5,52,0.00,CLR,,0.00,WeatherDisplay:10.37,2013-11-05 16:18:00,
2013-11-05 10:23:00,53.4,36.2,29.33,South,180,5.8,6.0,52,0.00,CLR,,0.00,WeatherDisplay:10.37,2013-11-05 16:23:00,
2013-11-05 10:28:00,53.4,36.7,29.33,SE,135,4.6,4.6,53,0.00,CLR,,0.00,WeatherDisplay:10.37,2013-11-05 16:28:00,
2013-11-05 10:33:00,53.8,37.0,29.32,SE,135,3.5,3.5,53,0.00,CLR,,0.00,WeatherDisplay:10.37,2013-11-05 16:33:00,
2013-11-05 10:38:00,54.1,36.9,29.32,NE,45,4.6,4.6,52,0.00,CLR,,0.00,WeatherDisplay:10.37,2013-11-05 16:38:00,
2013-11-05 10:43:00,54.0,36.2,29.31,NE,45,3.8,3.8,51,0.00,CLR,,0.00,WeatherDisplay:10.37,2013-11-05 16:43:00,
2013-11-05 10:48:00,54.9,37.6,29.31,NE,45,3.5,3.5,52,0.00,CLR,,0.00,WeatherDisplay:10.37,2013-11-05 16:48:00,
2013-11-05 10:53:00,55.0,36.2,29.31,SE,135,3.8,3.8,49,0.00,CLR,,0.00,WeatherDisplay:10.37,2013-11-05 16:53:00,
2013-11-05 10:58:00,54.0,36.2,29.31,East,90,3.5,3.5,51,0.00,CLR,,0.00,WeatherDisplay:10.37,2013-11-05 16:58:00,
2013-11-05 11:03:00,53.4,36.2,29.31,East,90,3.5,3.5,52,0.00,CLR,,0.00,WeatherDisplay:10.37,2013-11-05 17:03:00,
2013-11-05 11:08:00,52.0,36.8,29.31,SW,225,3.5,3.5,56,0.00,CLR,,0.00,WeatherDisplay:10.37,2013-11-05 17:08:00,
2013-11-05 11:14:00,51.8,37.0,29.31,North,0,3.5,3.5,57,0.00,CLR,,0.00,WeatherDisplay:10.37,2013-11-05 17:14:00,
2013-11-05 11:19:00,51.8,36.6,29.31,North,0,3.5,3.5,56,0.00,CLR,,0.00,WeatherDisplay:10.37,2013-11-05 17:19:00,
2013-11-05 11:24:00,52.3,37.1,29.30,NW,315,1.2,0.0,56,0.00,CLR,,0.00,WeatherDisplay:10.37,2013-11-05 17:24:00,
2013-11-05 11:29:00,52.3,37.1,29.30,NW,315,2.3,2.3,56,0.00,CLR,,0.00,WeatherDisplay:10.37,2013-11-05 17:29:00,
2013-11-05 11:34:00,53.2,37.9,29.30,East,90,3.5,3.5,56,0.00,CLR,,0.00,WeatherDisplay:10.37,2013-11-05 17:34:00,
2013-11-05 11:39:00,53.6,37.8,29.29,NE,45,3.5,3.5,55,0.00,CLR,,0.00,WeatherDisplay:10.37,2013-11-05 17:39:00,
2013-11-05 11:44:00,53.8,37.5,29.28,NE,45,3.5,3.5,54,0.00,CLR,,0.00,WeatherDisplay:10.37,2013-11-05 17:44:00,
2013-11-05 11:49:00,55.0,38.7,29.28,South,180,4.6,4.6,54,0.00,CLR,,0.00,WeatherDisplay:10.37,2013-11-05 17:49:00,
2013-11-05 11:54:00,56.3,38.9,29.28,West,270,4.6,4.6,52,0.00,CLR,,0.00,WeatherDisplay:10.37,2013-11-05 17:54:00,
2013-11-05 11:59:00,58.1,39.0,29.28,NE,45,2.3,2.3,49,0.00,CLR,,0.00,WeatherDisplay:10.37,2013-11-05 17:59:00,
2013-11-05 12:04:00,58.1,38.5,29.28,East,90,2.3,2.3,48,0.00,CLR,,0.00,WeatherDisplay:10.37,2013-11-05 18:04:00,
2013-11-05 12:09:00,56.5,37.5,29.28,South,180,3.5,3.5,49,0.00,CLR,,0.00,WeatherDisplay:10.37,2013-11-05 18:09:00,
2013-11-05 12:14:00,55.4,37.1,29.27,East,90,5.8,5.8,50,0.00,CLR,,0.00,WeatherDisplay:10.37,2013-11-05 18:14:00,
2013-11-05 12:19:00,55.0,37.2,29.27,South,180,5.8,5.8,51,0.00,CLR,,0.00,WeatherDisplay:10.37,2013-11-05 18:19:00,
2013-11-05 12:24:00,55.2,37.9,29.27,East,90,2.3,2.3,52,0.00,CLR,,0.00,WeatherDisplay:10.37,2013-11-05 18:24:00,
2013-11-05 12:29:00,54.3,37.1,29.26,East,90,3.5,3.5,52,0.00,CLR,,0.00,WeatherDisplay:10.37,2013-11-05 18:29:00,
2013-11-05 12:34:00,54.0,37.2,29.26,SE,135,3.5,3.5,53,0.00,CLR,,0.00,WeatherDisplay:10.37,2013-11-05 18:34:00,
2013-11-05 12:39:00,53.6,37.3,29.26,East,90,3.5,3.5,54,0.00,CLR,,0.00,WeatherDisplay:10.37,2013-11-05 18:39:00,
2013-11-05 12:44:00,53.2,37.5,29.25,East,90,1.2,0.0,55,0.00,CLR,,0.00,WeatherDisplay:10.37,2013-11-05 18:44:00,
2013-11-05 12:49:00,53.4,38.6,29.26,SE,135,3.5,3.5,57,0.00,CLR,,0.00,WeatherDisplay:10.37,2013-11-05 18:49:00,
2013-11-05 12:54:00,53.2,38.8,29.25,South,180,5.8,5.8,58,0.00,CLR,,0.00,WeatherDisplay:10.37,2013-11-05 18:54:00,
2013-11-05 12:59:00,52.9,38.5,29.26,South,180,4.6,4.6,58,0.00,CLR,,0.00,WeatherDisplay:10.37,2013-11-05 18:59:00,
2013-11-05 13:04:00,52.9,38.5,29.26,South,180,3.5,3.5,58,0.00,CLR,,0.00,WeatherDisplay:10.37,2013-11-05 19:04:00,
2013-11-05 13:09:00,52.5,39.0,29.25,South,180,3.5,3.5,60,0.00,CLR,,0.00,WeatherDisplay:10.37,2013-11-05 19:09:00,
2013-11-05 13:14:00,52.3,38.9,29.25,South,180,3.5,3.5,60,0.00,CLR,,0.00,WeatherDisplay:10.37,2013-11-05 19:14:00,
2013-11-05 13:19:00,52.2,39.1,29.25,SE,135,3.5,3.5,61,0.00,CLR,,0.00,WeatherDisplay:10.37,2013-11-05 19:19:00,
2013-11-05 13:24:00,52.2,39.5,29.25,South,180,4.6,4.6,62,0.00,CLR,,0.00,WeatherDisplay:10.37,2013-11-05 19:24:00,
2013-11-05 13:29:00,52.2,39.9,29.25,SE,135,2.3,2.3,63,0.00,CLR,,0.00,WeatherDisplay:10.37,2013-11-05 19:29:00,
2013-11-05 13:34:00,51.8,40.4,29.25,South,180,3.5,3.5,65,0.00,CLR,,0.00,WeatherDisplay:10.37,2013-11-05 19:34:00,
2013-11-05 13:39:00,51.4,40.5,29.25,South,180,4.6,4.6,66,0.00,CLR,,0.00,WeatherDisplay:10.37,2013-11-05 19:39:00,
2013-11-05 13:44:00,51.3,41.8,29.24,South,180,2.3,0.0,70,0.00,CLR,,0.00,WeatherDisplay:10.37,2013-11-05 19:44:00,
2013-11-05 13:49:00,51.1,42.0,29.24,SE,135,1.2,0.0,71,0.00,CLR,,0.00,WeatherDisplay:10.37,2013-11-05 19:49:00,
2013-11-05 13:54:00,50.7,42.4,29.24,SE,135,1.2,0.0,73,0.00,CLR,,0.00,WeatherDisplay:10.37,2013-11-05 19:54:00,
2013-11-05 13:59:00,50.5,42.6,29.23,SE,135,1.2,0.0,74,0.01,RA,,0.01,WeatherDisplay:10.37,2013-11-05 19:59:00,
2013-11-05 14:04:00,50.4,42.4,29.23,SE,135,1.2,0.0,74,0.01,RA,,0.01,WeatherDisplay:10.37,2013-11-05 20:04:00,
2013-11-05 14:09:00,50.2,42.6,29.22,East,90,0.0,0.0,75,0.01,CLR,,0.01,WeatherDisplay:10.37,2013-11-05 20:09:00,
2013-11-05 14:14:00,50.2,42.9,29.22,East,90,1.2,0.0,76,0.01,CLR,,0.01,WeatherDisplay:10.37,2013-11-05 20:14:00,
2013-11-05 14:19:00,50.2,43.2,29.22,East,90,0.0,0.0,77,0.01,CLR,,0.01,WeatherDisplay:10.37,2013-11-05 20:19:00,
2013-11-05 14:24:00,50.0,44.1,29.22,SE,135,0.0,0.0,80,0.01,CLR,,0.01,WeatherDisplay:10.37,2013-11-05 20:24:00,
2013-11-05 14:29:00,50.0,43.7,29.22,SE,135,1.2,0.0,79,0.01,CLR,,0.01,WeatherDisplay:10.37,2013-11-05 20:29:00,
2013-11-05 14:34:00,49.6,43.1,29.21,SE,135,0.0,0.0,78,0.01,CLR,,0.01,WeatherDisplay:10.37,2013-11-05 20:34:00,
2013-11-05 14:39:00,49.6,43.4,29.21,East,90,2.3,0.0,79,0.01,CLR,,0.01,WeatherDisplay:10.37,2013-11-05 20:39:00,
2013-11-05 14:44:00,49.5,43.5,29.20,East,90,0.0,0.0,80,0.01,CLR,,0.01,WeatherDisplay:10.37,2013-11-05 20:44:00,
2013-11-05 14:49:00,49.5,43.5,29.21,NE,45,0.0,0.0,80,0.01,CLR,,0.01,WeatherDisplay:10.37,2013-11-05 20:49:00,
2013-11-05 14:54:00,49.5,43.5,29.21,East,90,0.0,0.0,80,0.01,CLR,,0.01,WeatherDisplay:10.37,2013-11-05 20:54:00,
2013-11-05 14:59:00,49.3,43.7,29.20,East,90,0.0,0.0,81,0.00,CLR,,0.01,WeatherDisplay:10.37,2013-11-05 20:59:00,
2013-11-05 15:04:00,49.3,43.7,29.20,East,90,0.0,0.0,81,0.00,CLR,,0.01,WeatherDisplay:10.37,2013-11-05 21:04:00,
2013-11-05 15:09:00,49.1,43.8,29.20,East,90,1.2,0.0,82,0.00,CLR,,0.01,WeatherDisplay:10.37,2013-11-05 21:09:00,
2013-11-05 15:14:00,49.1,44.5,29.19,NE,45,3.5,3.5,84,0.00,CLR,,0.01,WeatherDisplay:10.37,2013-11-05 21:14:00,
2013-11-05 15:19:00,49.1,44.5,29.19,NE,45,3.5,3.5,84,0.00,CLR,,0.01,WeatherDisplay:10.37,2013-11-05 21:19:00,
2013-11-05 15:24:00,49.3,44.3,29.19,NE,45,3.5,3.5,83,0.00,CLR,,0.01,WeatherDisplay:10.37,2013-11-05 21:24:00,
2013-11-05 15:29:00,49.1,44.5,29.18,NE,45,3.5,3.5,84,0.00,CLR,,0.01,WeatherDisplay:10.37,2013-11-05 21:29:00,
2013-11-05 15:34:00,48.9,44.6,29.18,NE,45,3.5,3.5,85,0.00,CLR,,0.01,WeatherDisplay:10.37,2013-11-05 21:34:00,
2013-11-05 15:39:00,48.7,44.4,29.19,NE,45,0.0,0.0,85,0.00,CLR,,0.01,WeatherDisplay:10.37,2013-11-05 21:39:00,
2013-11-05 15:44:00,48.6,44.6,29.19,NE,45,0.0,0.0,86,0.00,CLR,,0.01,WeatherDisplay:10.37,2013-11-05 21:44:00,
2013-11-05 15:49:00,48.4,44.7,29.18,East,90,1.2,0.0,87,0.01,RA,,0.02,WeatherDisplay:10.37,2013-11-05 21:49:00,
2013-11-05 15:54:00,48.0,44.6,29.19,East,90,1.2,1.2,88,0.01,RA,,0.02,WeatherDisplay:10.37,2013-11-05 21:54:00,
2013-11-05 15:59:00,47.8,45.0,29.18,NE,45,2.3,2.3,90,0.01,CLR,,0.02,WeatherDisplay:10.37,2013-11-05 21:59:00,
2013-11-05 16:04:00,47.3,45.1,29.18,NE,45,4.6,4.6,92,0.01,CLR,,0.02,WeatherDisplay:10.37,2013-11-05 22:04:00,
2013-11-05 16:09:00,46.9,45.0,29.18,NE,45,5.8,5.8,93,0.02,RA,,0.04,WeatherDisplay:10.37,2013-11-05 22:09:00,
2013-11-05 16:14:00,46.8,45.1,29.18,North,0,5.8,5.8,94,0.02,RA,,0.04,WeatherDisplay:10.37,2013-11-05 22:14:00,
2013-11-05 16:19:00,46.8,45.1,29.17,North,0,3.5,3.5,94,0.02,CLR,,0.04,WeatherDisplay:10.37,2013-11-05 22:19:00,
2013-11-05 16:24:00,46.2,44.9,29.16,North,0,8.1,8.1,95,0.04,RA,,0.05,WeatherDisplay:10.37,2013-11-05 22:24:00,
2013-11-05 16:29:00,46.0,44.7,29.16,NE,45,8.1,8.1,95,0.04,RA,,0.05,WeatherDisplay:10.37,2013-11-05 22:29:00,
2013-11-05 16:34:00,45.9,44.8,29.16,NE,45,4.6,4.6,96,0.04,,,0.05,WeatherDisplay:10.37,2013-11-05 22:34:00,
2013-11-05 16:39:00,45.7,44.6,29.16,North,0,4.6,4.6,96,0.04,CLR,,0.05,WeatherDisplay:10.37,2013-11-05 22:39:00,
2013-11-05 16:44:00,45.5,44.7,29.16,East,90,5.8,5.8,97,0.04,CLR,,0.05,WeatherDisplay:10.37,2013-11-05 22:44:00,
2013-11-05 16:49:00,45.5,44.7,29.16,North,0,5.8,5.8,97,0.04,RA,,0.06,WeatherDisplay:10.37,2013-11-05 22:49:00,
2013-11-05 16:54:00,45.5,44.7,29.15,NE,45,5.8,5.8,97,0.04,RA,,0.06,WeatherDisplay:10.37,2013-11-05 22:54:00,
2013-11-05 16:59:00,45.3,44.5,29.15,NE,45,5.8,5.8,97,0.04,,,0.06,WeatherDisplay:10.37,2013-11-05 22:59:00,
2013-11-05 17:04:00,45.3,44.5,29.15,NE,45,5.8,5.8,97,0.04,CLR,,0.06,WeatherDisplay:10.37,2013-11-05 23:04:00,
2013-11-05 17:09:00,45.0,44.4,29.15,NE,45,4.6,4.6,98,0.04,RA,,0.07,WeatherDisplay:10.37,2013-11-05 23:09:00,
2013-11-05 17:15:00,45.0,44.4,29.16,NE,45,6.9,6.9,98,0.04,RA,,0.08,WeatherDisplay:10.37,2013-11-05 23:15:00,
2013-11-05 17:20:00,44.8,44.3,29.15,North,0,5.8,5.8,98,0.05,RA,,0.08,WeatherDisplay:10.37,2013-11-05 23:20:00,
2013-11-05 17:25:00,44.6,44.1,29.15,NE,45,5.8,5.8,98,0.05,RA,,0.09,WeatherDisplay:10.37,2013-11-05 23:25:00,
2013-11-05 17:30:00,44.6,44.1,29.14,NE,45,6.9,6.9,98,0.05,RA,,0.09,WeatherDisplay:10.37,2013-11-05 23:30:00,
2013-11-05 17:34:00,44.6,44.1,29.14,NE,45,5.8,5.8,98,0.06,RA,,0.11,WeatherDisplay:10.37,2013-11-05 23:34:00,
2013-11-05 17:40:00,44.4,43.9,29.14,East,90,3.5,3.5,98,0.06,RA,,0.11,WeatherDisplay:10.37,2013-11-05 23:40:00,
2013-11-05 17:45:00,44.4,43.9,29.13,NE,45,6.9,6.9,98,0.07,RA,,0.12,WeatherDisplay:10.37,2013-11-05 23:45:00,
2013-11-05 17:50:00,44.6,44.3,29.13,NE,45,5.8,5.8,99,0.06,RA,,0.12,WeatherDisplay:10.37,2013-11-05 23:50:00,
2013-11-05 17:55:00,44.4,44.2,29.13,NE,45,5.8,5.8,99,0.06,,,0.12,WeatherDisplay:10.37,2013-11-05 23:55:00,
2013-11-05 18:00:00,44.4,44.2,29.11,NE,45,5.8,5.8,99,0.07,RA,,0.13,WeatherDisplay:10.37,2013-11-06 00:00:00,
2013-11-05 18:05:00,44.4,44.2,29.11,NE,45,6.9,6.9,99,0.07,RA,,0.13,WeatherDisplay:10.37,2013-11-06 00:05:00,
2013-11-05 18:10:00,44.4,44.2,29.12,NE,45,4.6,4.6,99,0.07,RA,,0.14,WeatherDisplay:10.37,2013-11-06 00:10:00,
2013-11-05 18:15:00,44.4,44.2,29.12,NE,45,5.8,5.8,99,0.07,RA,,0.15,WeatherDisplay:10.37,2013-11-06 00:15:00,
2013-11-05 18:20:00,44.4,44.2,29.11,North,0,4.6,4.6,99,0.07,RA,,0.15,WeatherDisplay:10.37,2013-11-06 00:20:00,
2013-11-05 18:25:00,44.4,44.2,29.11,NE,45,5.8,5.8,99,0.07,RA,,0.17,WeatherDisplay:10.37,2013-11-06 00:25:00,
2013-11-05 18:30:00,44.4,44.2,29.10,NE,45,6.0,6.0,99,0.07,RA,,0.17,WeatherDisplay:10.37,2013-11-06 00:30:00,
2013-11-05 18:35:00,44.4,44.2,29.10,NE,45,3.5,3.5,99,0.07,RA,,0.18,WeatherDisplay:10.37,2013-11-06 00:35:00,
2013-11-05 18:40:00,44.6,44.3,29.10,NE,45,4.6,4.6,99,0.08,RA,,0.19,WeatherDisplay:10.37,2013-11-06 00:40:00,
2013-11-05 18:45:00,44.6,44.3,29.10,NE,45,4.6,4.6,99,0.08,RA,,0.20,WeatherDisplay:10.37,2013-11-06 00:45:00,
2013-11-05 18:50:00,44.6,44.3,29.09,NE,45,5.8,5.8,99,0.08,RA,,0.20,WeatherDisplay:10.37,2013-11-06 00:50:00,
2013-11-05 18:55:00,44.8,44.5,29.08,NE,45,4.6,4.6,99,0.08,,,0.20,WeatherDisplay:10.37,2013-11-06 00:55:00,
2013-11-05 19:00:00,44.6,44.3,29.07,NE,45,5.8,5.8,99,0.08,RA,,0.21,WeatherDisplay:10.37,2013-11-06 01:00:00,
2013-11-05 19:05:00,44.6,44.3,29.07,NE,45,4.6,4.6,99,0.08,RA,,0.21,WeatherDisplay:10.37,2013-11-06 01:05:00,
2013-11-05 19:10:00,45.0,44.7,29.07,North,0,3.5,3.5,99,0.07,CLR,,0.21,WeatherDisplay:10.37,2013-11-06 01:10:00,
2013-11-05 19:15:00,45.0,44.7,29.07,North,0,4.6,4.6,99,0.07,RA,,0.22,WeatherDisplay:10.37,2013-11-06 01:15:00,
2013-11-05 19:20:00,45.0,44.7,29.07,NE,45,4.6,4.6,99,0.07,RA,,0.22,WeatherDisplay:10.37,2013-11-06 01:20:00,
2013-11-05 19:25:00,45.0,44.7,29.07,NE,45,3.5,3.5,99,0.07,RA,,0.24,WeatherDisplay:10.37,2013-11-06 01:25:00,
2013-11-05 19:30:00,45.1,44.9,29.06,NE,45,4.6,4.6,99,0.08,RA,,0.25,WeatherDisplay:10.37,2013-11-06 01:30:00,
2013-11-05 19:35:00,45.1,44.9,29.06,North,0,3.5,3.5,99,0.08,RA,,0.26,WeatherDisplay:10.37,2013-11-06 01:35:00,
2013-11-05 19:40:00,45.1,44.9,29.06,NE,45,3.5,3.5,99,0.08,RA,,0.27,WeatherDisplay:10.37,2013-11-06 01:40:00,
2013-11-05 19:45:00,45.1,44.9,29.06,North,0,4.6,4.6,99,0.08,RA,,0.28,WeatherDisplay:10.37,2013-11-06 01:45:00,
2013-11-05 19:50:00,45.1,44.9,29.06,East,90,3.5,3.8,99,0.09,RA,,0.30,WeatherDisplay:10.37,2013-11-06 01:50:00,
2013-11-05 19:55:00,45.1,44.9,29.06,NE,45,6.9,6.9,99,0.11,RA,,0.31,WeatherDisplay:10.37,2013-11-06 01:55:00,
2013-11-05 20:00:00,45.1,44.9,29.06,North,0,5.8,5.8,99,0.11,RA,,0.32,WeatherDisplay:10.37,2013-11-06 02:00:00,
2013-11-05 20:05:00,45.1,44.9,29.06,North,0,3.5,3.5,99,0.11,RA,,0.32,WeatherDisplay:10.37,2013-11-06 02:05:00,
2013-11-05 20:10:00,45.1,44.9,29.05,NE,45,4.6,4.6,99,0.13,RA,,0.34,WeatherDisplay:10.37,2013-11-06 02:10:00,
2013-11-05 20:15:00,45.0,44.7,29.04,North,0,6.9,6.9,99,0.13,RA,,0.35,WeatherDisplay:10.37,2013-11-06 02:15:00,
2013-11-05 20:20:00,45.0,44.7,29.04,North,0,4.6,4.6,99,0.14,RA,,0.37,WeatherDisplay:10.37,2013-11-06 02:20:00,
2013-11-05 20:25:00,45.0,44.7,29.03,NE,45,6.9,6.9,99,0.14,RA,,0.38,WeatherDisplay:10.37,2013-11-06 02:25:00,
2013-11-05 20:30:00,45.0,44.7,29.03,NE,45,5.8,5.8,99,0.13,RA,,0.38,WeatherDisplay:10.37,2013-11-06 02:30:00,
2013-11-05 20:35:00,45.1,44.9,29.03,NE,45,4.6,4.6,99,0.13,RA,,0.39,WeatherDisplay:10.37,2013-11-06 02:35:00,
2013-11-05 20:40:00,45.1,44.9,29.03,NE,45,5.8,5.8,99,0.12,RA,,0.39,WeatherDisplay:10.37,2013-11-06 02:40:00,
2013-11-05 20:45:00,45.1,44.9,29.02,NE,45,5.8,5.8,99,0.11,,,0.39,WeatherDisplay:10.37,2013-11-06 02:45:00,
2013-11-05 20:50:00,45.1,44.9,29.02,NE,45,6.9,6.9,99,0.11,RA,,0.40,WeatherDisplay:10.37,2013-11-06 02:50:00,
2013-11-05 20:55:00,45.1,44.9,29.01,NE,45,5.8,5.8,99,0.09,RA,,0.40,WeatherDisplay:10.37,2013-11-06 02:55:00,
2013-11-05 21:00:00,45.1,44.9,29.01,NE,45,5.8,5.8,99,0.08,,,0.40,WeatherDisplay:10.37,2013-11-06 03:00:00,
2013-11-05 21:05:00,45.1,44.9,29.00,NE,45,4.6,4.6,99,0.08,CLR,,0.40,WeatherDisplay:10.37,2013-11-06 03:05:00,
2013-11-05 21:10:00,45.1,44.9,29.00,NE,45,5.8,5.8,99,0.07,RA,,0.41,WeatherDisplay:10.37,2013-11-06 03:10:00,
2013-11-05 21:15:00,45.3,45.1,29.00,NE,45,5.8,5.8,99,0.06,RA,,0.41,WeatherDisplay:10.37,2013-11-06 03:15:00,
2013-11-05 21:20:00,45.1,44.9,29.00,NE,45,5.8,5.8,99,0.06,RA,,0.43,WeatherDisplay:10.37,2013-11-06 03:20:00,
2013-11-05 21:25:00,45.3,45.1,29.00,NE,45,5.8,5.8,99,0.05,RA,,0.43,WeatherDisplay:10.37,2013-11-06 03:25:00,
2013-11-05 21:30:00,45.3,45.1,29.00,NE,45,6.9,6.9,99,0.06,RA,,0.44,WeatherDisplay:10.37,2013-11-06 03:30:00,
2013-11-05 21:35:00,45.3,45.1,29.00,NE,45,5.8,5.8,99,0.05,RA,,0.44,WeatherDisplay:10.37,2013-11-06 03:35:00,
2013-11-05 21:40:00,45.3,45.1,28.99,NE,45,5.8,5.8,99,0.06,RA,,0.45,WeatherDisplay:10.37,2013-11-06 03:40:00,
2013-11-05 21:45:00,45.1,44.9,28.99,NE,45,5.8,5.8,99,0.06,RA,,0.45,WeatherDisplay:10.37,2013-11-06 03:45:00,
2013-11-05 21:50:00,45.1,44.9,28.99,North,0,5.8,5.8,99,0.06,RA,,0.46,WeatherDisplay:10.37,2013-11-06 03:50:00,
2013-11-05 21:55:00,45.0,44.7,28.98,NE,45,4.6,4.6,99,0.07,RA,,0.47,WeatherDisplay:10.37,2013-11-06 03:55:00,
2013-11-05 22:00:00,45.0,44.7,28.98,NE,45,3.5,3.5,99,0.08,RA,,0.48,WeatherDisplay:10.37,2013-11-06 04:00:00,
2013-11-05 22:05:00,45.0,44.7,28.99,NE,45,3.5,3.5,99,0.08,RA,,0.48,WeatherDisplay:10.37,2013-11-06 04:05:00,
2013-11-05 22:10:00,44.8,44.5,28.98,North,0,3.5,3.5,99,0.07,,,0.48,WeatherDisplay:10.37,2013-11-06 04:10:00,
2013-11-05 22:15:00,45.0,44.7,28.98,NE,45,5.8,5.8,99,0.08,RA,,0.50,WeatherDisplay:10.37,2013-11-06 04:15:00,
2013-11-05 22:20:00,44.4,44.2,28.97,North,0,8.1,8.1,99,0.07,RA,,0.50,WeatherDisplay:10.37,2013-11-06 04:20:00,
2013-11-05 22:25:00,44.4,44.2,28.98,NE,45,5.8,5.8,99,0.08,RA,,0.51,WeatherDisplay:10.37,2013-11-06 04:25:00,
2013-11-05 22:30:00,44.2,44.0,28.97,NE,45,5.8,5.8,99,0.07,RA,,0.51,WeatherDisplay:10.37,2013-11-06 04:30:00,
2013-11-05 22:36:00,44.2,44.0,28.96,NE,45,5.8,5.8,99,0.07,,,0.51,WeatherDisplay:10.37,2013-11-06 04:36:00,
2013-11-05 22:41:00,44.1,43.8,28.96,NE,45,6.9,6.9,99,0.07,RA,,0.52,WeatherDisplay:10.37,2013-11-06 04:41:00,
2013-11-05 22:46:00,44.1,43.8,28.96,NE,45,5.8,5.8,99,0.07,RA,,0.52,WeatherDisplay:10.37,2013-11-06 04:46:00,
2013-11-05 22:51:00,44.1,43.8,28.95,NE,45,5.8,5.8,99,0.07,RA,,0.53,WeatherDisplay:10.37,2013-11-06 04:51:00,
2013-11-05 22:56:00,43.9,43.6,28.95,North,0,5.8,5.8,99,0.06,RA,,0.53,WeatherDisplay:10.37,2013-11-06 04:56:00,
2013-11-05 23:01:00,44.1,43.8,28.94,North,0,8.1,8.1,99,0.06,RA,,0.54,WeatherDisplay:10.37,2013-11-06 05:01:00,
2013-11-05 23:02:00,44.1,43.8,28.95,North,0,5.8,5.8,99,0.06,RA,,0.54,WeatherDisplay:10.37,2013-11-06 05:02:00,
2013-11-05 23:07:00,44.1,43.8,28.95,North,0,5.8,5.8,99,0.06,RA,,0.54,WeatherDisplay:10.37,2013-11-06 05:07:00,
2013-11-05 23:12:00,43.9,43.6,28.94,NE,45,3.5,3.5,99,0.06,RA,,0.56,WeatherDisplay:10.37,2013-11-06 05:12:00,
2013-11-05 23:17:00,43.9,43.6,28.94,NE,45,4.6,4.6,99,0.06,RA,,0.57,WeatherDisplay:10.37,2013-11-06 05:17:00,
2013-11-05 23:22:00,43.9,43.6,28.94,North,0,5.8,5.8,99,0.07,RA,,0.57,WeatherDisplay:10.37,2013-11-06 05:22:00,
2013-11-05 23:27:00,43.9,43.6,28.94,North,0,9.2,9.2,99,0.06,,,0.57,WeatherDisplay:10.37,2013-11-06 05:27:00,
2013-11-05 23:32:00,43.9,43.6,28.94,North,0,9.2,9.2,99,0.06,CLR,,0.57,WeatherDisplay:10.37,2013-11-06 05:32:00,
2013-11-05 23:37:00,43.9,43.6,28.93,NE,45,6.9,6.9,99,0.07,RA,,0.58,WeatherDisplay:10.37,2013-11-06 05:37:00,
2013-11-05 23:42:00,43.9,43.6,28.94,NE,45,8.1,8.1,99,0.06,RA,,0.58,WeatherDisplay:10.37,2013-11-06 05:42:00,
2013-11-05 23:47:00,43.7,43.4,28.94,North,0,5.8,5.8,99,0.07,RA,,0.59,WeatherDisplay:10.37,2013-11-06 05:47:00,
2013-11-05 23:52:00,43.7,43.4,28.94,North,0,3.8,3.8,99,0.06,RA,,0.60,WeatherDisplay:10.37,2013-11-06 05:52:00,
2013-11-05 23:57:00,43.5,43.3,28.93,North,0,5.8,5.8,99,0.08,RA,,0.61,WeatherDisplay:10.37,2013-11-06 05:57:00,